createdAt,value
2018-09-26T00:01:03.619Z,101047.87
2018-09-26T00:03:36.041Z,101047.92
2018-09-26T00:06:05.467Z,101051.44
2018-09-26T00:08:34.600Z,101052.35
2018-09-26T00:11:04.975Z,101053.98
2018-09-26T00:13:36.378Z,101054.33
2018-09-26T00:16:05.819Z,101050.31
2018-09-26T00:18:35.036Z,101053.22
2018-09-26T00:21:05.064Z,101048.62
2018-09-26T00:23:34.189Z,101053.84
2018-09-26T00:29:04.758Z,101060.79
2018-09-26T00:31:48.032Z,101054.41
2018-09-26T00:34:17.343Z,101059.88
2018-09-26T00:36:46.512Z,101058.09
2018-09-26T00:39:16.624Z,101056.20
2018-09-26T00:41:45.711Z,101065.05
2018-09-26T00:44:14.840Z,101062.64
2018-09-26T00:47:11.525Z,101062.70
2018-09-26T00:49:41.174Z,101060.21
2018-09-26T00:52:13.573Z,101065.73
2018-09-26T00:54:42.610Z,101069.90
2018-09-26T00:57:12.096Z,101062.07
2018-09-26T00:59:43.207Z,101063.22
2018-09-26T01:02:12.154Z,101062.69
2018-09-26T01:04:43.078Z,101058.56
2018-09-26T01:07:11.985Z,101063.74
2018-09-26T01:09:40.933Z,101065.63
2018-09-26T01:12:09.996Z,101066.66
2018-09-26T01:14:39.029Z,101065.98
2018-09-26T01:17:08.037Z,101066.81
2018-09-26T01:19:37.585Z,101069.34
2018-09-26T01:22:09.826Z,101069.12
2018-09-26T01:24:38.966Z,101080.45
2018-09-26T01:27:07.979Z,101078.91
2018-09-26T01:29:37.140Z,101078.66
2018-09-26T01:32:09.239Z,101071.73
2018-09-26T01:34:39.053Z,101068.58
2018-09-26T01:37:08.978Z,101070.34
2018-09-26T01:39:38.295Z,101076.56
2018-09-26T01:42:07.327Z,101078.28
2018-09-26T01:44:36.158Z,101081.44
2018-09-26T01:47:05.565Z,101075.41
2018-09-26T01:49:40.532Z,101077.40
2018-09-26T01:52:09.643Z,101076.94
2018-09-26T01:54:39.162Z,101082.08
2018-09-26T01:57:09.266Z,101075.62
2018-09-26T01:59:38.337Z,101080.55
2018-09-26T02:02:07.400Z,101077.06
2018-09-26T02:04:36.417Z,101083.61
2018-09-26T02:07:09.574Z,101084.47
2018-09-26T02:09:46.622Z,101087.64
2018-09-26T02:12:16.629Z,101085.23
2018-09-26T02:14:51.075Z,101081.88
2018-09-26T02:17:20.173Z,101082.66
2018-09-26T02:19:49.121Z,101086.23
2018-09-26T02:22:18.337Z,101087.30
2018-09-26T02:24:47.494Z,101084.83
2018-09-26T02:27:16.559Z,101084.63
2018-09-26T02:29:45.546Z,101081.69
2018-09-26T02:32:20.266Z,101083.05
2018-09-26T02:34:49.395Z,101085.81
2018-09-26T02:37:18.342Z,101084.54
2018-09-26T02:39:54.392Z,101087.23
2018-09-26T02:42:23.258Z,101089.11
2018-09-26T02:44:52.304Z,101089.67
2018-09-26T02:47:21.306Z,101093.73
2018-09-26T02:49:56.303Z,101096.98
2018-09-26T02:52:28.903Z,101096.41
2018-09-26T02:54:58.911Z,101099.06
2018-09-26T02:57:27.873Z,101096.81
2018-09-26T03:00:12.777Z,101088.04
2018-09-26T03:08:25.562Z,101110.84
2018-09-26T03:10:55.947Z,101115.98
2018-09-26T03:13:42.811Z,101114.25
2018-09-26T03:22:00.715Z,101125.33
2018-09-26T03:24:37.044Z,101128.63
2018-09-26T03:27:13.662Z,101144.56
2018-09-26T03:29:43.154Z,101143.42
2018-09-26T03:32:12.084Z,101137.95
2018-09-26T03:34:49.900Z,101149.27
2018-09-26T03:40:22.607Z,101147.16
2018-09-26T03:42:59.315Z,101159.08
2018-09-26T03:45:28.424Z,101162.44
2018-09-26T03:47:57.573Z,101164.06
2018-09-26T03:50:26.441Z,101171.77
2018-09-26T03:52:55.568Z,101178.62
2018-09-26T03:55:24.675Z,101172.52
2018-09-26T03:57:53.560Z,101174.53
2018-09-26T04:00:22.622Z,101173.97
2018-09-26T04:02:51.572Z,101182.22
2018-09-26T04:05:20.564Z,101181.81
2018-09-26T04:07:49.917Z,101184.52
2018-09-26T04:10:23.851Z,101179.07
2018-09-26T04:12:53.366Z,101184.30
2018-09-26T04:15:22.285Z,101190.78
2018-09-26T04:17:53.279Z,101198.76
2018-09-26T04:20:22.295Z,101197.16
2018-09-26T04:22:51.416Z,101197.39
2018-09-26T04:25:21.243Z,101207.11
2018-09-26T04:27:50.163Z,101210.45
2018-09-26T04:30:18.990Z,101209.02
2018-09-26T04:32:48.045Z,101211.24
2018-09-26T04:35:16.965Z,101213.77
2018-09-26T04:37:45.828Z,101215.92
2018-09-26T04:40:15.224Z,101218.52
2018-09-26T04:42:44.259Z,101224.13
2018-09-26T04:45:13.216Z,101228.05
2018-09-26T04:47:42.443Z,101225.72
2018-09-26T04:50:12.363Z,101230.02
2018-09-26T04:52:44.216Z,101227.16
2018-09-26T04:55:13.172Z,101232.05
2018-09-26T04:57:42.181Z,101230.13
2018-09-26T05:00:11.296Z,101238.60
2018-09-26T05:02:41.912Z,101237.00
2018-09-26T05:05:10.792Z,101242.12
2018-09-26T05:07:39.714Z,101244.72
2018-09-26T05:10:09.200Z,101245.08
2018-09-26T05:12:38.206Z,101247.60
2018-09-26T05:15:07.695Z,101249.09
2018-09-26T05:17:36.516Z,101245.94
2018-09-26T05:20:05.765Z,101250.81
2018-09-26T05:22:35.274Z,101239.47
2018-09-26T05:25:04.441Z,101248.63
2018-09-26T05:27:33.601Z,101247.95
2018-09-26T05:30:02.950Z,101250.90
2018-09-26T05:32:31.804Z,101257.03
2018-09-26T05:35:00.710Z,101252.17
2018-09-26T05:37:30.032Z,101257.77
2018-09-26T05:40:06.091Z,101262.76
2018-09-26T05:42:35.183Z,101265.23
2018-09-26T05:45:04.207Z,101261.61
2018-09-26T05:47:33.311Z,101266.45
2018-09-26T05:50:03.536Z,101267.98
2018-09-26T05:52:32.736Z,101271.96
2018-09-26T05:55:01.782Z,101272.13
2018-09-26T05:57:30.776Z,101271.39
2018-09-26T05:59:59.711Z,101278.55
2018-09-26T06:02:28.986Z,101278.41
2018-09-26T06:04:58.450Z,101283.08
2018-09-26T06:07:27.330Z,101283.23
2018-09-26T06:09:56.378Z,101285.16
2018-09-26T06:12:25.722Z,101288.23
2018-09-26T06:14:54.564Z,101291.43
2018-09-26T06:17:23.565Z,101295.23
2018-09-26T06:19:52.634Z,101299.77
2018-09-26T06:22:21.718Z,101303.64
2018-09-26T06:24:50.620Z,101305.89
2018-09-26T06:27:20.699Z,101303.92
2018-09-26T06:29:49.542Z,101308.05
2018-09-26T06:32:18.435Z,101314.00
2018-09-26T06:34:47.418Z,101315.16
2018-09-26T06:37:16.419Z,101317.03
2018-09-26T06:39:45.187Z,101313.12
2018-09-26T06:42:14.369Z,101315.75
2018-09-26T06:44:43.309Z,101315.99
2018-09-26T06:47:12.172Z,101313.10
2018-09-26T06:49:41.257Z,101315.07
2018-09-26T06:52:10.303Z,101327.35
2018-09-26T06:54:39.276Z,101318.98
2018-09-26T06:57:08.347Z,101319.62
2018-09-26T06:59:37.231Z,101321.64
2018-09-26T07:02:06.102Z,101314.20
2018-09-26T07:04:35.873Z,101317.27
2018-09-26T07:07:04.841Z,101318.41
2018-09-26T07:09:33.861Z,101318.80
2018-09-26T07:12:03.257Z,101318.45
2018-09-26T07:14:32.221Z,101317.00
2018-09-26T07:17:00.975Z,101311.84
2018-09-26T07:19:30.037Z,101301.46
2018-09-26T07:21:59.502Z,101303.78
2018-09-26T07:24:28.509Z,101310.80
2018-09-26T07:26:57.658Z,101313.78
2018-09-26T07:29:26.652Z,101306.55
2018-09-26T07:31:55.667Z,101314.17
2018-09-26T07:34:29.826Z,101313.19
2018-09-26T07:36:58.805Z,101303.53
2018-09-26T07:39:27.642Z,101295.98
2018-09-26T07:41:56.540Z,101297.77
2018-09-26T07:44:25.472Z,101294.94
2018-09-26T07:46:54.526Z,101291.00
2018-09-26T07:49:23.685Z,101287.02
2018-09-26T07:51:52.805Z,101294.13
2018-09-26T07:54:21.906Z,101286.85
2018-09-26T07:56:51.310Z,101288.80
2018-09-26T07:59:20.206Z,101280.64
2018-09-26T08:01:49.213Z,101280.61
2018-09-26T08:04:18.393Z,101273.02
2018-09-26T08:06:47.160Z,101287.03
2018-09-26T08:09:16.287Z,101281.70
2018-09-26T08:11:45.478Z,101279.25
2018-09-26T08:14:14.386Z,101281.11
2018-09-26T08:16:43.485Z,101282.30
2018-09-26T08:19:12.561Z,101273.68
2018-09-26T08:21:41.555Z,101275.49
2018-09-26T08:24:10.615Z,101279.02
2018-09-26T08:26:39.900Z,101275.56
2018-09-26T08:29:08.855Z,101268.98
2018-09-26T08:31:37.851Z,101260.10
2018-09-26T08:34:07.353Z,101260.33
2018-09-26T08:36:36.248Z,101266.77
2018-09-26T08:39:14.386Z,101264.93
2018-09-26T08:41:43.299Z,101260.83
2018-09-26T08:44:12.317Z,101261.00
2018-09-26T08:46:45.364Z,101263.22
2018-09-26T08:49:16.397Z,101259.64
2018-09-26T08:51:45.784Z,101262.34
2018-09-26T08:54:14.719Z,101270.53
2018-09-26T08:56:43.668Z,101255.64
2018-09-26T08:59:12.876Z,101256.06
2018-09-26T09:01:46.409Z,101254.29
2018-09-26T09:04:16.275Z,101251.36
2018-09-26T09:06:45.767Z,101265.86
2018-09-26T09:09:14.752Z,101248.44
2018-09-26T09:11:43.736Z,101240.77
2018-09-26T09:14:12.807Z,101247.95
2018-09-26T09:16:41.853Z,101242.75
2018-09-26T09:19:11.524Z,101237.55
2018-09-26T09:21:40.410Z,101244.01
2018-09-26T09:26:51.811Z,101245.64
2018-09-26T09:29:20.996Z,101238.69
2018-09-26T09:34:42.958Z,101233.03
2018-09-26T09:37:11.996Z,101228.61
2018-09-26T09:39:40.950Z,101224.00
2018-09-26T09:42:10.251Z,101218.85
2018-09-26T09:44:39.233Z,101217.02
2018-09-26T09:47:08.270Z,101220.37
2018-09-26T09:49:37.594Z,101221.04
2018-09-26T09:52:06.697Z,101220.39
2018-09-26T09:54:35.641Z,101212.59
2018-09-26T09:57:04.724Z,101214.57
2018-09-26T09:59:33.711Z,101217.73
2018-09-26T10:02:02.584Z,101208.56
2018-09-26T10:04:31.707Z,101217.53
2018-09-26T10:07:00.432Z,101218.83
2018-09-26T10:09:29.398Z,101213.63
2018-09-26T10:11:58.577Z,101213.51
2018-09-26T10:14:27.727Z,101216.55
2018-09-26T10:16:56.656Z,101206.86
2018-09-26T10:19:26.899Z,101206.63
2018-09-26T10:21:55.642Z,101218.44
2018-09-26T10:24:24.481Z,101216.80
2018-09-26T10:26:53.500Z,101204.06
2018-09-26T10:29:22.370Z,101202.36
2018-09-26T10:31:51.261Z,101199.23
2018-09-26T10:34:20.341Z,101193.84
2018-09-26T10:36:49.037Z,101196.05
2018-09-26T10:39:17.869Z,101199.76
2018-09-26T10:41:46.717Z,101196.92
2018-09-26T10:44:15.517Z,101193.20
2018-09-26T10:46:44.326Z,101187.31
2018-09-26T10:49:14.563Z,101189.80
2018-09-26T10:51:43.356Z,101190.62
2018-09-26T10:54:12.219Z,101179.16
2018-09-26T10:56:41.456Z,101177.74
2018-09-26T10:59:10.323Z,101169.87
2018-09-26T11:01:39.150Z,101160.45
2018-09-26T11:04:08.712Z,101163.16
2018-09-26T11:06:37.552Z,101159.06
2018-09-26T11:09:08.409Z,101154.08
2018-09-26T11:11:37.313Z,101156.44
2018-09-26T11:14:06.223Z,101153.77
2018-09-26T11:16:35.005Z,101151.34
2018-09-26T11:19:03.873Z,101145.98
2018-09-26T11:21:32.752Z,101135.98
2018-09-26T11:24:01.689Z,101134.52
2018-09-26T11:26:30.589Z,101134.45
2018-09-26T11:28:59.419Z,101132.77
2018-09-26T11:31:28.624Z,101132.63
2018-09-26T11:33:57.512Z,101130.99
2018-09-26T11:36:26.257Z,101128.25
2018-09-26T11:38:55.555Z,101125.64
2018-09-26T11:41:24.767Z,101120.95
2018-09-26T11:43:53.619Z,101121.22
2018-09-26T11:46:22.852Z,101112.14
2018-09-26T11:48:51.668Z,101116.14
2018-09-26T11:51:20.498Z,101117.68
2018-09-26T11:53:49.537Z,101116.17
2018-09-26T11:56:18.443Z,101114.02
2018-09-26T11:58:47.219Z,101112.05
2018-09-26T12:01:18.224Z,101112.77
2018-09-26T12:03:47.087Z,101112.33
2018-09-26T12:06:16.125Z,101101.30
2018-09-26T12:08:45.021Z,101096.62
2018-09-26T12:11:14.997Z,101090.56
2018-09-26T12:13:43.858Z,101087.70
2018-09-26T12:16:12.861Z,101092.27
2018-09-26T12:18:42.072Z,101085.03
2018-09-26T12:21:14.022Z,101087.75
2018-09-26T12:23:42.960Z,101076.53
2018-09-26T12:26:11.916Z,101073.77
2018-09-26T12:28:40.788Z,101079.63
2018-09-26T12:31:10.039Z,101085.16
2018-09-26T12:33:38.927Z,101078.77
2018-09-26T12:36:07.827Z,101072.00
2018-09-26T12:38:36.782Z,101069.18
2018-09-26T12:41:05.654Z,101073.77
2018-09-26T12:43:34.384Z,101066.92
2018-09-26T12:46:03.990Z,101074.37
2018-09-26T12:48:32.992Z,101083.66
2018-09-26T12:51:01.666Z,101080.98
2018-09-26T12:53:30.658Z,101090.16
2018-09-26T12:55:59.483Z,101081.30
2018-09-26T12:58:28.352Z,101084.42
2018-09-26T13:00:57.630Z,101074.84
2018-09-26T13:03:26.519Z,101071.88
2018-09-26T13:05:55.282Z,101060.72
2018-09-26T13:08:24.128Z,101056.59
2018-09-26T13:10:53.054Z,101056.25
2018-09-26T13:13:22.188Z,101061.27
2018-09-26T13:15:51.114Z,101051.67
2018-09-26T13:18:19.986Z,101060.40
2018-09-26T13:20:49.031Z,101049.70
2018-09-26T13:23:18.246Z,101061.44
2018-09-26T13:25:47.383Z,101051.33
2018-09-26T13:28:24.286Z,101055.55
2018-09-26T13:30:53.083Z,101051.53
2018-09-26T13:33:22.101Z,101050.97
2018-09-26T13:35:50.943Z,101048.86
2018-09-26T13:38:19.794Z,101044.41
2018-09-26T13:40:49.155Z,101041.63
2018-09-26T13:43:17.997Z,101038.67
2018-09-26T13:45:47.029Z,101045.52
2018-09-26T13:48:16.096Z,101042.59
2018-09-26T13:50:49.378Z,101037.68
2018-09-26T13:53:18.292Z,101036.73
2018-09-26T13:55:47.429Z,101053.73
2018-09-26T13:58:21.093Z,101040.95
2018-09-26T14:00:51.804Z,101046.39
2018-09-26T14:03:20.890Z,101035.17
2018-09-26T14:05:50.272Z,101029.59
2018-09-26T14:08:20.054Z,101034.68
2018-09-26T14:10:49.883Z,101027.31
2018-09-26T14:13:19.403Z,101028.41
2018-09-26T14:15:49.356Z,101029.96
2018-09-26T14:18:18.726Z,101034.94
2018-09-26T14:20:48.125Z,101031.62
2018-09-26T14:23:17.988Z,101042.87
2018-09-26T14:25:47.273Z,101034.38
2018-09-26T14:28:16.524Z,101037.68
2018-09-26T14:30:45.845Z,101025.13
2018-09-26T14:33:15.234Z,101035.80
2018-09-26T14:35:44.349Z,101047.23
2018-09-26T14:38:13.926Z,101036.44
2018-09-26T14:40:43.196Z,101045.91
2018-09-26T14:43:12.453Z,101027.02
2018-09-26T14:45:41.866Z,101040.44
2018-09-26T14:48:12.169Z,101039.80
2018-09-26T14:50:41.350Z,101068.50
2018-09-26T14:53:11.345Z,101040.37
2018-09-26T14:55:40.544Z,101058.30
2018-09-26T14:58:09.819Z,101047.95
2018-09-26T15:00:38.983Z,101075.59
2018-09-26T15:03:08.336Z,101067.49
2018-09-26T15:05:41.593Z,101058.64
2018-09-26T15:08:11.244Z,101065.53
2018-09-26T15:10:41.549Z,101054.94
2018-09-26T15:13:13.908Z,101063.23
2018-09-26T15:15:43.125Z,101066.70
2018-09-26T15:18:12.452Z,101065.05
2018-09-26T15:20:41.834Z,101061.73
2018-09-26T15:23:11.200Z,101074.77
2018-09-26T15:25:40.635Z,101077.27
2018-09-26T15:28:10.061Z,101082.73
2018-09-26T15:30:39.378Z,101092.19
2018-09-26T15:33:08.930Z,101087.17
2018-09-26T15:35:38.400Z,101083.98
2018-09-26T15:38:07.778Z,101086.80
2018-09-26T15:40:37.294Z,101087.13
2018-09-26T15:43:06.685Z,101092.59
2018-09-26T15:45:36.010Z,101096.63
2018-09-26T15:48:05.332Z,101099.76
2018-09-26T15:50:34.672Z,101106.16
2018-09-26T15:53:03.910Z,101126.23
2018-09-26T15:55:33.524Z,101112.27
2018-09-26T15:58:03.345Z,101115.31
2018-09-26T16:00:32.515Z,101120.55
2018-09-26T16:03:02.095Z,101125.94
2018-09-26T16:05:32.315Z,101131.00
2018-09-26T16:08:01.719Z,101136.73
2018-09-26T16:10:31.930Z,101142.05
2018-09-26T16:13:01.431Z,101143.91
2018-09-26T16:15:32.093Z,101148.23
2018-09-26T16:18:02.580Z,101157.38
2018-09-26T16:20:32.278Z,101151.48
2018-09-26T16:23:02.141Z,101156.64
2018-09-26T16:25:31.500Z,101154.59
2018-09-26T16:28:02.459Z,101170.46
2018-09-26T16:30:32.529Z,101154.66
2018-09-26T16:33:02.172Z,101164.05
2018-09-26T16:35:32.493Z,101176.88
2018-09-26T16:38:02.572Z,101177.61
2018-09-26T16:40:32.854Z,101186.20
2018-09-26T16:43:03.041Z,101183.84
2018-09-26T16:45:33.919Z,101201.47
2018-09-26T16:48:05.206Z,101195.70
2018-09-26T16:50:34.966Z,101205.27
2018-09-26T16:53:05.261Z,101202.80
2018-09-26T16:55:35.064Z,101199.37
2018-09-26T16:58:04.774Z,101217.23
2018-09-26T17:00:51.650Z,101204.95
2018-09-26T17:03:21.375Z,101207.03
2018-09-26T17:05:52.760Z,101214.41
2018-09-26T17:08:23.394Z,101211.47
2018-09-26T17:10:54.801Z,101216.84
2018-09-26T17:13:26.778Z,101227.16
2018-09-26T17:15:56.290Z,101218.45
2018-09-26T17:18:26.866Z,101245.41
2018-09-26T17:20:57.726Z,101235.25
2018-09-26T17:23:27.173Z,101238.70
2018-09-26T17:26:00.463Z,101235.12
2018-09-26T17:28:31.530Z,101241.67
2018-09-26T17:31:01.242Z,101243.86
2018-09-26T17:33:31.152Z,101253.09
2018-09-26T17:36:01.449Z,101245.59
2018-09-26T17:38:31.054Z,101253.23
2018-09-26T17:41:01.030Z,101255.83
2018-09-26T17:43:31.772Z,101260.17
2018-09-26T17:46:02.313Z,101271.52
2018-09-26T17:48:33.771Z,101257.45
2018-09-26T17:51:04.426Z,101268.00
2018-09-26T17:53:33.992Z,101268.98
2018-09-26T17:56:04.370Z,101277.03
2018-09-26T17:58:34.950Z,101275.62
2018-09-26T18:01:04.398Z,101278.19
2018-09-26T18:03:34.938Z,101282.36
2018-09-26T18:06:04.415Z,101274.41
2018-09-26T18:08:33.722Z,101280.92
2018-09-26T18:11:03.981Z,101279.25
2018-09-26T18:13:41.140Z,101283.34
2018-09-26T18:16:10.481Z,101283.85
2018-09-26T18:18:43.014Z,101283.62
2018-09-26T18:21:13.110Z,101280.47
2018-09-26T18:23:42.991Z,101276.85
2018-09-26T18:26:13.711Z,101282.91
2018-09-26T18:28:43.351Z,101286.38
2018-09-26T18:31:12.940Z,101287.53
2018-09-26T18:33:42.470Z,101289.72
2018-09-26T18:36:12.456Z,101291.79
2018-09-26T18:38:42.151Z,101281.89
2018-09-26T18:41:12.927Z,101278.88
2018-09-26T18:43:42.739Z,101280.13
2018-09-26T18:46:12.653Z,101275.67
2018-09-26T18:48:42.206Z,101270.09
2018-09-26T18:51:12.989Z,101269.14
2018-09-26T18:53:42.385Z,101274.75
2018-09-26T18:56:11.760Z,101268.23
2018-09-26T18:58:42.155Z,101265.28
2018-09-26T19:01:11.532Z,101266.16
2018-09-26T19:03:40.868Z,101260.73
2018-09-26T19:06:10.600Z,101263.20
2018-09-26T19:08:40.426Z,101266.27
2018-09-26T19:11:10.345Z,101269.73
2018-09-26T19:13:39.778Z,101269.98
2018-09-26T19:16:11.957Z,101269.97
2018-09-26T19:18:42.680Z,101273.12
2018-09-26T19:21:15.983Z,101269.09
2018-09-26T19:23:45.715Z,101269.29
2018-09-26T19:26:15.745Z,101270.26
2018-09-26T19:28:45.895Z,101269.58
2018-09-26T19:31:15.936Z,101266.56
2018-09-26T19:33:47.241Z,101266.84
2018-09-26T19:36:17.114Z,101266.04
2018-09-26T19:38:48.523Z,101265.72
2018-09-26T19:41:18.484Z,101264.26
2018-09-26T19:43:50.392Z,101266.21
2018-09-26T19:46:19.936Z,101272.86
2018-09-26T19:48:50.729Z,101274.47
2018-09-26T19:51:20.744Z,101273.19
2018-09-26T19:53:52.261Z,101271.50
2018-09-26T19:56:26.602Z,101276.26
2018-09-26T19:58:57.360Z,101270.78
2018-09-26T20:01:28.056Z,101272.42
2018-09-26T20:04:16.140Z,101278.33
2018-09-26T20:10:27.680Z,101284.11
2018-09-26T20:12:58.446Z,101284.67
2018-09-26T20:15:28.213Z,101295.28
2018-09-26T20:17:58.512Z,101294.83
2018-09-26T20:20:28.138Z,101293.97
2018-09-26T20:22:57.653Z,101291.78
2018-09-26T20:25:27.043Z,101287.97
2018-09-26T20:27:58.787Z,101291.36
2018-09-26T20:30:30.988Z,101287.78
2018-09-26T20:33:00.867Z,101287.36
2018-09-26T20:35:33.693Z,101288.42
2018-09-26T20:38:03.847Z,101291.31
2018-09-26T20:40:34.627Z,101290.87
2018-09-26T20:43:05.122Z,101288.38
2018-09-26T20:45:35.590Z,101289.41
2018-09-26T20:48:06.598Z,101288.13
2018-09-26T20:50:36.544Z,101285.27
2018-09-26T20:53:06.129Z,101290.46
2018-09-26T20:55:38.251Z,101291.78
2018-09-26T20:58:09.723Z,101296.16
2018-09-26T21:00:39.545Z,101296.16
2018-09-26T21:03:09.472Z,101304.74
2018-09-26T21:05:41.659Z,101303.77
2018-09-26T21:08:12.138Z,101305.30
2018-09-26T21:10:43.763Z,101299.34
2018-09-26T21:13:14.179Z,101303.86
2018-09-26T21:15:45.246Z,101310.94
2018-09-26T21:18:15.190Z,101306.01
2018-09-26T21:20:45.112Z,101301.64
2018-09-26T21:23:16.475Z,101302.99
2018-09-26T21:25:47.604Z,101304.20
2018-09-26T21:28:18.316Z,101303.12
2018-09-26T21:30:49.529Z,101307.16
2018-09-26T21:33:19.093Z,101308.22
2018-09-26T21:35:48.849Z,101308.84
2018-09-26T21:38:18.369Z,101305.49
2018-09-26T21:40:47.816Z,101303.44
2018-09-26T21:43:17.352Z,101299.58
2018-09-26T21:45:47.449Z,101300.92
2018-09-26T21:48:17.016Z,101302.27
2018-09-26T21:50:46.633Z,101290.80
2018-09-26T21:53:16.922Z,101295.72
2018-09-26T21:55:46.841Z,101289.22
2018-09-26T21:58:17.486Z,101290.19
2018-09-26T22:00:51.835Z,101293.30
2018-09-26T22:03:22.473Z,101288.95
2018-09-26T22:05:51.728Z,101292.97
2018-09-26T22:08:21.400Z,101291.27
2018-09-26T22:10:51.600Z,101295.22
2018-09-26T22:13:21.046Z,101293.89
2018-09-26T22:15:50.573Z,101290.42
2018-09-26T22:18:20.103Z,101292.22
2018-09-26T22:20:49.377Z,101290.00
2018-09-26T22:23:19.867Z,101279.92
2018-09-26T22:25:49.447Z,101282.10
2018-09-26T22:28:19.678Z,101287.31
2018-09-26T22:30:49.138Z,101285.06
2018-09-26T22:33:18.736Z,101284.53
2018-09-26T22:35:48.078Z,101271.00
2018-09-26T22:38:17.259Z,101281.59
2018-09-26T22:40:46.965Z,101282.44
2018-09-26T22:43:16.185Z,101278.16
2018-09-26T22:45:45.417Z,101280.03
2018-09-26T22:48:15.260Z,101277.01
2018-09-26T22:50:44.542Z,101283.23
2018-09-26T22:53:13.815Z,101275.78
2018-09-26T22:55:43.106Z,101279.67
2018-09-26T22:58:12.375Z,101284.09
2018-09-26T23:00:41.773Z,101283.00
2018-09-26T23:03:11.023Z,101281.92
2018-09-26T23:05:40.165Z,101277.58
2018-09-26T23:08:09.255Z,101286.67
2018-09-26T23:10:38.901Z,101284.91
2018-09-26T23:13:08.076Z,101284.07
2018-09-26T23:15:37.177Z,101281.97
2018-09-26T23:18:06.483Z,101285.36
2018-09-26T23:20:35.502Z,101282.72
2018-09-26T23:23:04.669Z,101278.66
2018-09-26T23:25:34.157Z,101283.79
2018-09-26T23:28:03.193Z,101271.16
2018-09-26T23:30:32.393Z,101275.33
2018-09-26T23:33:01.736Z,101276.98
2018-09-26T23:35:30.918Z,101281.06
2018-09-26T23:37:59.997Z,101275.44
2018-09-26T23:40:29.517Z,101275.34
2018-09-26T23:43:02.107Z,101273.22
2018-09-26T23:45:31.252Z,101278.08
2018-09-26T23:48:00.253Z,101271.97
2018-09-26T23:50:30.310Z,101271.13
2018-09-26T23:52:59.570Z,101268.05
2018-09-26T23:55:28.650Z,101267.71
2018-09-26T23:57:57.847Z,101260.76
